createdAt,value
2023-02-28T00:00:21.569Z,11.10
2023-02-28T00:03:27.876Z,10.90
2023-02-28T00:09:38.688Z,10.40
2023-02-28T00:12:45.196Z,11.30
2023-02-28T00:16:00.643Z,11.30
2023-02-28T00:19:06.988Z,11.00
2023-02-28T00:22:13.329Z,10.50
2023-02-28T00:31:30.759Z,10.60
2023-02-28T00:34:38.716Z,11.30
2023-02-28T00:37:45.474Z,11.10
2023-02-28T00:40:51.745Z,10.80
2023-02-28T00:43:57.983Z,10.30
2023-02-28T00:50:11.475Z,9.80
2023-02-28T00:53:17.741Z,10.20
2023-02-28T00:56:23.940Z,10.70
2023-02-28T00:59:30.240Z,10.50
2023-02-28T01:05:42.455Z,10.30
2023-02-28T01:08:48.757Z,11.10
2023-02-28T01:14:59.541Z,10.40
2023-02-28T01:21:11.854Z,10.30
2023-02-28T01:24:18.198Z,10.60
2023-02-28T01:30:29.019Z,11.50
2023-02-28T01:36:40.237Z,10.50
2023-02-28T01:42:51.070Z,10.20
2023-02-28T01:49:07.748Z,10.90
2023-02-28T01:52:19.116Z,12.00
2023-02-28T01:55:29.774Z,11.20
2023-02-28T01:58:36.587Z,12.20
2023-02-28T02:01:42.914Z,13.30
2023-02-28T02:08:03.669Z,11.90
2023-02-28T02:11:13.158Z,11.90
2023-02-28T02:14:35.291Z,11.50
2023-02-28T02:17:46.898Z,24.50
2023-02-28T02:21:37.548Z,18.50
2023-02-28T02:25:05.521Z,17.40
2023-02-28T02:28:38.755Z,16.60
2023-02-28T02:32:19.934Z,13.50
2023-02-28T02:35:29.894Z,12.40
2023-02-28T02:38:41.852Z,13.00
2023-02-28T02:41:53.483Z,14.60
2023-02-28T02:45:07.285Z,14.20
2023-02-28T02:48:18.276Z,13.80
2023-02-28T02:51:27.230Z,13.30
2023-02-28T02:54:37.740Z,14.20
2023-02-28T02:57:48.716Z,12.80
2023-02-28T03:00:59.216Z,13.30
2023-02-28T03:04:10.048Z,12.70
2023-02-28T03:07:16.575Z,12.90
2023-02-28T03:10:39.091Z,12.70
2023-02-28T03:14:01.649Z,13.00
2023-02-28T03:17:24.030Z,13.30
2023-02-28T03:20:42.229Z,12.10
2023-02-28T03:23:54.961Z,12.60
2023-02-28T03:27:06.009Z,13.00
2023-02-28T03:30:18.544Z,12.60
2023-02-28T03:33:30.661Z,12.40
2023-02-28T03:36:45.074Z,12.20
2023-02-28T03:39:56.449Z,12.60
2023-02-28T03:43:05.933Z,12.60
2023-02-28T03:46:15.777Z,12.80
2023-02-28T03:49:25.224Z,12.70
2023-02-28T03:52:34.618Z,13.10
2023-02-28T03:55:45.014Z,13.20
2023-02-28T03:58:57.756Z,13.60
2023-02-28T04:02:04.400Z,13.80
2023-02-28T04:05:11.911Z,13.80
2023-02-28T04:08:18.084Z,15.70
2023-02-28T04:11:30.388Z,15.20
2023-02-28T04:14:36.899Z,15.30
2023-02-28T04:20:48.009Z,14.00
2023-02-28T04:23:54.365Z,14.30
2023-02-28T04:30:07.010Z,14.40
2023-02-28T04:33:13.237Z,13.90
2023-02-28T04:39:25.966Z,13.80
2023-02-28T04:42:36.768Z,15.40
2023-02-28T04:45:43.083Z,15.00
2023-02-28T04:48:49.405Z,13.80
2023-02-28T04:51:56.781Z,15.50
2023-02-28T04:55:03.037Z,14.40
2023-02-28T05:01:25.865Z,15.10
2023-02-28T05:04:35.348Z,15.40
2023-02-28T05:07:41.684Z,14.40
2023-02-28T05:10:48.219Z,13.90
2023-02-28T05:13:55.191Z,12.70
2023-02-28T05:17:01.382Z,13.00
2023-02-28T05:20:15.715Z,14.00
2023-02-28T05:23:24.895Z,16.20
2023-02-28T05:26:31.505Z,15.10
2023-02-28T05:29:44.376Z,18.10
2023-02-28T05:32:53.819Z,15.30
2023-02-28T05:36:00.195Z,16.20
2023-02-28T05:39:07.241Z,16.20
2023-02-28T05:42:13.491Z,15.10
2023-02-28T05:48:24.567Z,14.00
2023-02-28T05:54:35.979Z,13.40
2023-02-28T05:57:42.228Z,14.60
2023-02-28T06:03:53.345Z,13.50
2023-02-28T06:06:59.757Z,11.90
2023-02-28T06:10:06.238Z,13.70
2023-02-28T06:13:12.745Z,13.30
2023-02-28T06:16:19.022Z,14.60
2023-02-28T06:22:30.242Z,13.40
2023-02-28T06:28:41.233Z,17.00
2023-02-28T06:31:48.032Z,17.60
2023-02-28T06:34:55.130Z,15.30
2023-02-28T06:38:01.322Z,15.20
2023-02-28T06:41:08.246Z,16.20
2023-02-28T06:44:18.493Z,16.60
2023-02-28T06:47:24.838Z,20.50
2023-02-28T06:56:41.972Z,20.20
2023-02-28T06:59:48.304Z,20.10
2023-02-28T07:06:01.319Z,20.50
2023-02-28T07:12:12.755Z,19.40
2023-02-28T07:18:23.416Z,29.70
2023-02-28T07:21:30.351Z,26.00
2023-02-28T07:24:36.718Z,27.40
2023-02-28T07:27:42.893Z,29.80
2023-02-28T07:30:49.369Z,27.50
2023-02-28T07:33:57.483Z,25.90
2023-02-28T07:37:04.895Z,19.70
2023-02-28T07:40:15.314Z,19.40
2023-02-28T07:43:21.531Z,17.70
2023-02-28T07:46:30.658Z,16.40
2023-02-28T07:49:37.374Z,7.80
2023-02-28T07:52:43.896Z,7.30
2023-02-28T07:55:50.350Z,6.70
2023-02-28T07:58:56.722Z,6.30
2023-02-28T08:05:09.371Z,7.30
2023-02-28T08:08:15.811Z,8.10
2023-02-28T08:11:22.023Z,7.50
2023-02-28T08:14:28.382Z,6.30
2023-02-28T08:20:41.763Z,5.20
2023-02-28T08:26:52.957Z,6.10
2023-02-28T08:33:04.108Z,5.30
2023-02-28T08:36:11.502Z,5.90
2023-02-28T08:39:17.667Z,5.90
2023-02-28T08:42:25.146Z,6.40
2023-02-28T08:45:31.654Z,5.40
2023-02-28T08:48:39.711Z,6.30
2023-02-28T08:51:46.054Z,5.50
2023-02-28T08:57:57.204Z,4.90
2023-02-28T09:04:09.704Z,6.20
2023-02-28T09:07:16.054Z,5.80
2023-02-28T09:13:27.245Z,9.70
2023-02-28T09:16:34.811Z,6.60
2023-02-28T09:19:41.359Z,6.80
2023-02-28T09:25:54.265Z,6.90
2023-02-28T09:29:01.113Z,6.70
2023-02-28T09:32:08.051Z,6.50
2023-02-28T09:35:17.464Z,6.10
2023-02-28T09:38:23.733Z,6.30
2023-02-28T09:44:43.791Z,6.60
2023-02-28T09:47:53.690Z,6.00
2023-02-28T09:51:05.237Z,6.20
2023-02-28T09:54:20.037Z,6.20
2023-02-28T09:57:34.348Z,5.70
2023-02-28T10:00:44.309Z,6.60
2023-02-28T10:03:59.428Z,6.10
2023-02-28T10:07:18.698Z,6.40
2023-02-28T10:10:29.256Z,6.00
2023-02-28T10:13:40.559Z,6.50
2023-02-28T10:16:53.023Z,6.40
2023-02-28T10:20:09.072Z,6.10
2023-02-28T10:23:21.634Z,6.30
2023-02-28T10:26:31.401Z,6.50
2023-02-28T10:29:38.108Z,6.80
2023-02-28T10:35:51.283Z,6.20
2023-02-28T10:38:57.515Z,6.50
2023-02-28T10:42:03.753Z,6.10
2023-02-28T10:45:17.856Z,7.20
2023-02-28T10:48:35.968Z,6.80
2023-02-28T10:51:43.462Z,6.80
2023-02-28T10:54:49.727Z,6.80
2023-02-28T10:57:56.410Z,7.00
2023-02-28T11:01:03.199Z,7.10
2023-02-28T11:04:22.973Z,7.60
2023-02-28T11:07:37.340Z,7.70
2023-02-28T11:10:51.200Z,8.00
2023-02-28T11:14:00.802Z,8.90
2023-02-28T11:17:17.111Z,7.70
2023-02-28T11:20:25.586Z,9.50
2023-02-28T11:23:37.765Z,10.20
2023-02-28T11:26:46.960Z,8.70
2023-02-28T11:29:53.474Z,9.60
2023-02-28T11:32:59.975Z,9.30
2023-02-28T11:36:15.090Z,10.90
2023-02-28T11:39:21.845Z,10.60
2023-02-28T11:43:00.888Z,9.60
2023-02-28T11:46:23.152Z,11.40
2023-02-28T11:49:38.784Z,10.30
2023-02-28T11:52:53.966Z,10.30
2023-02-28T11:56:06.408Z,10.80
2023-02-28T11:59:32.019Z,11.40
2023-02-28T12:02:48.310Z,9.70
2023-02-28T12:06:03.389Z,11.30
2023-02-28T12:09:23.355Z,9.60
2023-02-28T12:12:41.131Z,10.30
2023-02-28T12:16:11.284Z,9.60
2023-02-28T12:19:27.078Z,10.40
2023-02-28T12:22:38.314Z,9.10
2023-02-28T12:26:01.342Z,8.80
2023-02-28T12:29:15.116Z,9.20
2023-02-28T12:32:24.759Z,9.50
2023-02-28T12:35:39.257Z,9.40
2023-02-28T12:38:50.002Z,9.70
2023-02-28T12:42:01.423Z,8.80
2023-02-28T12:45:14.123Z,8.80
2023-02-28T12:48:28.289Z,9.20
2023-02-28T12:51:37.293Z,9.10
2023-02-28T12:54:53.076Z,8.20
2023-02-28T12:58:04.072Z,8.60
2023-02-28T13:01:38.056Z,8.50
2023-02-28T13:05:03.696Z,8.40
2023-02-28T13:08:32.007Z,8.70
2023-02-28T13:11:44.917Z,7.70
2023-02-28T13:14:51.989Z,7.20
2023-02-28T13:18:00.498Z,8.50
2023-02-28T13:21:08.406Z,8.80
2023-02-28T13:24:35.856Z,8.10
2023-02-28T13:27:43.845Z,8.00
2023-02-28T13:31:10.175Z,7.70
2023-02-28T13:34:20.380Z,7.80
2023-02-28T13:37:44.463Z,7.50
2023-02-28T13:40:50.745Z,8.10
2023-02-28T13:44:14.235Z,7.30
2023-02-28T13:47:30.804Z,8.30
2023-02-28T13:50:39.728Z,8.20
2023-02-28T13:54:06.447Z,8.00
2023-02-28T13:57:29.813Z,7.60
2023-02-28T14:00:55.561Z,7.10
2023-02-28T14:04:21.949Z,7.10
2023-02-28T14:07:36.242Z,7.30
2023-02-28T14:10:47.717Z,7.90
2023-02-28T14:13:54.069Z,7.80
2023-02-28T14:17:01.701Z,8.40
2023-02-28T14:20:15.965Z,7.90
2023-02-28T14:23:36.974Z,8.00
2023-02-28T14:26:59.296Z,8.00
2023-02-28T14:30:23.320Z,8.50
2023-02-28T14:33:40.441Z,7.20
2023-02-28T14:36:47.272Z,8.40
2023-02-28T14:39:53.797Z,9.30
2023-02-28T14:43:01.937Z,9.40
2023-02-28T14:46:09.967Z,9.50
2023-02-28T14:49:23.114Z,10.10
2023-02-28T14:52:32.864Z,8.90
2023-02-28T14:55:39.571Z,9.40
2023-02-28T14:58:56.032Z,8.50
2023-02-28T15:02:25.928Z,8.50
2023-02-28T15:05:34.388Z,8.50
2023-02-28T15:08:40.917Z,10.20
2023-02-28T15:11:52.104Z,10.60
2023-02-28T15:14:58.431Z,9.60
2023-02-28T15:21:17.881Z,9.30
2023-02-28T15:24:39.219Z,10.70
2023-02-28T15:27:49.354Z,10.10
2023-02-28T15:30:58.395Z,9.30
2023-02-28T15:34:08.967Z,10.40
2023-02-28T15:37:42.567Z,11.00
2023-02-28T15:40:54.888Z,12.00
2023-02-28T15:44:27.843Z,10.20
2023-02-28T15:47:35.010Z,10.80
2023-02-28T15:50:42.045Z,10.40
2023-02-28T15:53:54.375Z,9.50
2023-02-28T15:57:03.633Z,11.10
2023-02-28T16:00:16.340Z,11.60
2023-02-28T16:03:37.444Z,10.90
2023-02-28T16:06:46.099Z,9.90
2023-02-28T16:09:52.332Z,9.80
2023-02-28T16:12:59.592Z,10.60
2023-02-28T16:16:06.294Z,10.00
2023-02-28T16:19:13.038Z,10.20
2023-02-28T16:22:19.285Z,11.20
2023-02-28T16:25:31.362Z,11.40
2023-02-28T16:28:40.803Z,11.20
2023-02-28T16:31:47.008Z,12.30
2023-02-28T16:34:53.273Z,12.80
2023-02-28T16:41:04.086Z,11.90
2023-02-28T16:44:15.562Z,12.20
2023-02-28T16:47:21.842Z,12.50
2023-02-28T16:53:33.319Z,11.90
2023-02-28T16:56:41.648Z,13.00
2023-02-28T16:59:48.037Z,12.00
2023-02-28T17:05:59.538Z,11.50
2023-02-28T17:12:12.135Z,13.80
2023-02-28T17:15:20.448Z,12.90
2023-02-28T17:18:27.674Z,14.40
2023-02-28T17:21:35.169Z,14.10
2023-02-28T17:24:41.448Z,15.20
2023-02-28T17:30:53.027Z,12.00
2023-02-28T17:33:59.272Z,14.00
2023-02-28T17:37:05.555Z,18.90
2023-02-28T17:43:21.459Z,18.30
2023-02-28T17:49:34.210Z,15.00
2023-02-28T17:52:40.499Z,12.90
2023-02-28T17:58:51.760Z,13.10
2023-02-28T18:01:58.052Z,13.30
2023-02-28T18:08:14.126Z,11.80
2023-02-28T18:11:20.530Z,14.80
2023-02-28T18:17:32.797Z,15.60
2023-02-28T18:23:48.518Z,22.00
2023-02-28T18:26:54.842Z,21.30
2023-02-28T18:30:01.097Z,19.40
2023-02-28T18:33:07.500Z,20.40
2023-02-28T18:36:16.330Z,19.80
2023-02-28T18:39:22.830Z,20.60
2023-02-28T18:42:29.065Z,16.20
2023-02-28T18:45:36.291Z,16.70
2023-02-28T18:48:42.898Z,16.90
2023-02-28T18:51:49.260Z,16.20
2023-02-28T18:58:00.029Z,17.80
2023-02-28T19:01:15.520Z,17.30
2023-02-28T19:04:21.807Z,17.20
2023-02-28T19:10:32.922Z,17.10
2023-02-28T19:13:39.331Z,16.80
2023-02-28T19:16:47.313Z,16.50
2023-02-28T19:19:53.694Z,16.20
2023-02-28T19:26:10.803Z,18.30
2023-02-28T19:29:17.173Z,17.30
2023-02-28T19:35:28.463Z,15.90
2023-02-28T19:41:39.332Z,16.10
2023-02-28T19:44:46.357Z,17.50
2023-02-28T19:47:52.682Z,17.60
2023-02-28T19:54:06.657Z,18.50
2023-02-28T19:57:12.931Z,18.70
2023-02-28T20:03:25.732Z,19.40
2023-02-28T20:06:34.437Z,20.00
2023-02-28T20:09:40.650Z,19.60
2023-02-28T20:12:46.926Z,18.10
2023-02-28T20:18:57.953Z,21.70
2023-02-28T20:22:04.132Z,19.60
2023-02-28T20:25:12.265Z,20.10
2023-02-28T20:28:19.195Z,20.00
2023-02-28T20:31:27.080Z,20.20
2023-02-28T20:34:33.377Z,19.10
2023-02-28T20:40:44.172Z,22.60
2023-02-28T20:46:55.085Z,24.20
2023-02-28T20:50:01.329Z,25.80
2023-02-28T20:56:16.193Z,30.00
2023-02-28T20:59:22.515Z,28.70
2023-02-28T21:05:33.230Z,26.40
2023-02-28T21:08:40.904Z,27.10
2023-02-28T21:11:47.515Z,25.80
2023-02-28T21:14:54.248Z,25.00
2023-02-28T21:18:00.501Z,25.60
2023-02-28T21:21:08.612Z,24.00
2023-02-28T21:24:15.695Z,23.90
2023-02-28T21:27:21.906Z,27.90
2023-02-28T21:30:28.429Z,26.70
2023-02-28T21:33:36.002Z,28.50
2023-02-28T21:36:45.776Z,31.80
2023-02-28T21:39:52.113Z,33.10
2023-02-28T21:42:58.413Z,47.20
2023-02-28T21:49:13.176Z,35.80
2023-02-28T21:55:31.284Z,38.10
2023-02-28T22:01:44.234Z,32.70
2023-02-28T22:04:50.780Z,34.70
2023-02-28T22:07:57.032Z,41.00
2023-02-28T22:11:06.767Z,41.50
2023-02-28T22:14:12.986Z,37.40
2023-02-28T22:17:19.162Z,32.20
2023-02-28T22:20:25.428Z,30.20
2023-02-28T22:26:36.514Z,31.20
2023-02-28T22:29:43.049Z,30.50
2023-02-28T22:32:49.820Z,31.20
2023-02-28T22:35:56.107Z,32.60
2023-02-28T22:42:07.917Z,35.00
2023-02-28T22:45:14.906Z,33.30
2023-02-28T22:48:21.479Z,31.50
2023-02-28T22:51:28.634Z,33.20
2023-02-28T22:54:34.452Z,32.20
2023-02-28T22:57:40.897Z,31.50
2023-02-28T23:00:47.300Z,31.30
2023-02-28T23:03:54.317Z,31.70
2023-02-28T23:07:00.715Z,35.90
2023-02-28T23:10:12.837Z,36.80
2023-02-28T23:13:20.291Z,34.70
2023-02-28T23:16:27.849Z,35.10
2023-02-28T23:19:34.288Z,32.50
2023-02-28T23:22:40.779Z,31.90
2023-02-28T23:25:47.301Z,61.40
2023-02-28T23:28:53.719Z,45.00
2023-02-28T23:32:00.342Z,40.40
2023-02-28T23:35:08.660Z,42.60
2023-02-28T23:38:14.910Z,45.70
2023-02-28T23:44:26.736Z,47.30
2023-02-28T23:47:33.421Z,53.00
2023-02-28T23:50:40.534Z,58.00
2023-02-28T23:53:48.823Z,53.90
2023-02-28T23:56:55.378Z,41.60
